createdAt,value
2023-04-27T16:37:50.149Z,73.99
2023-04-27T16:40:18.304Z,74.24
2023-04-27T16:42:46.987Z,74.80
2023-04-27T16:45:14.717Z,75.69
2023-04-27T16:47:42.617Z,76.06
2023-04-27T16:50:11.013Z,76.27
2023-04-27T16:52:38.730Z,77.16
2023-04-27T16:55:06.804Z,77.71
2023-04-27T16:57:34.358Z,77.88
2023-04-27T17:00:02.051Z,78.16
2023-04-27T17:02:29.747Z,78.66
2023-04-27T17:04:59.549Z,78.84
2023-04-27T17:07:28.723Z,79.86
2023-04-27T17:09:56.569Z,80.53
2023-04-27T17:12:24.158Z,81.67
2023-04-27T17:14:51.740Z,82.60
2023-04-27T17:17:19.419Z,83.16
2023-04-27T17:19:46.965Z,83.35
2023-04-27T17:22:15.045Z,83.23
2023-04-27T17:24:42.619Z,83.15
2023-04-27T17:27:10.400Z,84.25
2023-04-27T17:29:38.005Z,84.27
2023-04-27T17:32:05.730Z,83.94
2023-04-27T17:34:33.435Z,84.21
2023-04-27T17:39:55.803Z,84.57
2023-04-27T17:42:23.456Z,84.75
2023-04-27T17:44:51.332Z,85.31
2023-04-27T17:47:20.546Z,84.88
2023-04-27T17:49:48.107Z,85.14
2023-04-27T17:52:15.959Z,85.82
2023-04-27T17:54:43.662Z,85.41
2023-04-27T17:57:11.205Z,85.42
2023-04-27T17:59:38.885Z,85.87
2023-04-27T18:02:06.523Z,85.59
2023-04-27T18:04:34.348Z,86.54
2023-04-27T18:07:02.060Z,86.26
2023-04-27T18:09:30.840Z,86.13
2023-04-27T18:12:00.787Z,86.43
2023-04-27T18:14:28.377Z,86.65
2023-04-27T18:16:56.143Z,86.25
2023-04-27T18:19:24.123Z,86.64
2023-04-27T18:21:51.913Z,86.01
2023-04-27T18:24:19.566Z,86.06
2023-04-27T18:26:47.145Z,86.46
2023-04-27T18:29:15.110Z,85.85
2023-04-27T18:31:46.358Z,85.78
2023-04-27T18:34:14.492Z,85.85
2023-04-27T18:36:41.996Z,86.02
2023-04-27T18:39:09.685Z,86.28
2023-04-27T18:41:37.233Z,85.52
2023-04-27T18:44:05.910Z,85.68
2023-04-27T18:46:34.249Z,85.42
2023-04-27T18:49:02.445Z,85.71
2023-04-27T18:51:30.026Z,84.85
2023-04-27T18:53:58.033Z,85.50
2023-04-27T18:56:25.975Z,85.39
2023-04-27T18:58:53.750Z,85.92
2023-04-27T19:01:26.858Z,85.03
2023-04-27T19:03:55.083Z,85.42
2023-04-27T19:06:22.808Z,84.90
2023-04-27T19:08:50.645Z,85.83
2023-04-27T19:11:22.291Z,85.50
2023-04-27T19:13:50.324Z,86.26
2023-04-27T19:16:26.036Z,86.50
2023-04-27T19:18:57.256Z,85.94
2023-04-27T19:21:25.214Z,86.14
2023-04-27T19:23:53.202Z,87.10
2023-04-27T19:26:21.432Z,86.47
2023-04-27T19:28:49.048Z,86.59
2023-04-27T19:31:17.337Z,86.80
2023-04-27T19:33:47.372Z,87.25
2023-04-27T19:36:23.178Z,87.71
2023-04-27T19:38:50.850Z,87.72
2023-04-27T19:41:18.664Z,87.47
2023-04-27T19:43:46.306Z,87.72
2023-04-27T19:46:14.083Z,87.61
2023-04-27T19:48:42.520Z,87.36
2023-04-27T19:51:10.734Z,87.14
2023-04-27T19:53:39.009Z,87.85
2023-04-27T19:56:07.501Z,87.40
2023-04-27T19:58:36.044Z,87.46
2023-04-27T20:01:04.178Z,87.88
2023-04-27T20:03:32.128Z,87.99
2023-04-27T20:06:00.381Z,87.84
2023-04-27T20:08:28.108Z,88.08
2023-04-27T20:10:55.785Z,88.28
2023-04-27T20:13:23.363Z,87.90
2023-04-27T20:15:51.607Z,87.62
2023-04-27T20:18:19.492Z,87.41
2023-04-27T20:20:47.425Z,88.11
2023-04-27T20:23:15.019Z,87.21
2023-04-27T20:25:42.636Z,87.95
2023-04-27T20:28:10.238Z,87.77
2023-04-27T20:30:37.991Z,88.17
2023-04-27T20:33:05.660Z,87.77
2023-04-27T20:35:33.896Z,88.17
2023-04-27T20:38:02.013Z,87.91
2023-04-27T20:40:29.617Z,87.82
2023-04-27T20:42:57.398Z,87.48
2023-04-27T20:45:25.557Z,88.04
2023-04-27T20:47:53.445Z,88.04
2023-04-27T20:50:21.275Z,86.95
2023-04-27T20:52:48.976Z,87.38
2023-04-27T20:55:16.717Z,87.40
2023-04-27T20:57:44.315Z,87.78
2023-04-27T21:00:13.320Z,87.77
2023-04-27T21:02:41.069Z,87.63
2023-04-27T21:05:08.830Z,87.47
2023-04-27T21:07:36.421Z,87.44
2023-04-27T21:10:06.901Z,87.21
2023-04-27T21:12:34.510Z,87.74
2023-04-27T21:15:02.110Z,87.50
2023-04-27T21:17:29.914Z,87.82
2023-04-27T21:19:58.295Z,86.66
2023-04-27T21:22:26.139Z,87.38
2023-04-27T21:24:53.682Z,87.25
2023-04-27T21:27:21.330Z,86.54
2023-04-27T21:29:49.178Z,87.33
2023-04-27T21:32:16.962Z,87.36
2023-04-27T21:34:44.481Z,87.81
2023-04-27T21:37:12.104Z,87.26
2023-04-27T21:39:39.659Z,86.58
2023-04-27T21:42:07.294Z,86.72
2023-04-27T21:44:34.940Z,86.61
2023-04-27T21:47:02.658Z,87.33
2023-04-27T21:49:30.391Z,86.56
2023-04-27T21:51:58.312Z,86.59
2023-04-27T21:54:25.997Z,86.95
2023-04-27T21:56:53.718Z,86.31
2023-04-27T21:59:21.755Z,86.41
2023-04-27T22:01:49.408Z,85.66
2023-04-27T22:04:17.461Z,85.90
2023-04-27T22:06:45.838Z,86.36
2023-04-27T22:09:14.147Z,85.94
2023-04-27T22:11:41.776Z,85.73
2023-04-27T22:14:09.366Z,86.35
2023-04-27T22:16:37.027Z,85.66
2023-04-27T22:19:05.102Z,86.14
2023-04-27T22:21:33.375Z,85.37
2023-04-27T22:24:00.917Z,85.46
2023-04-27T22:26:28.512Z,85.36
2023-04-27T22:28:56.119Z,85.91
2023-04-27T22:31:24.001Z,86.40
2023-04-27T22:33:51.859Z,85.54
2023-04-27T22:36:19.523Z,85.47
2023-04-27T22:38:47.302Z,85.85
2023-04-27T22:41:14.960Z,86.46
2023-04-27T22:43:42.658Z,85.85
2023-04-27T22:46:10.249Z,86.27
2023-04-27T22:48:37.790Z,86.15
2023-04-27T22:51:09.535Z,85.97
2023-04-27T22:53:37.660Z,85.88
2023-04-27T22:56:06.151Z,85.73
2023-04-27T22:58:33.808Z,85.76
2023-04-27T23:01:01.734Z,86.12
2023-04-27T23:03:29.505Z,85.65
2023-04-27T23:05:57.203Z,84.88
2023-04-27T23:08:25.358Z,85.60
2023-04-27T23:10:56.960Z,85.32
2023-04-27T23:13:27.622Z,85.33
2023-04-27T23:15:55.333Z,85.65
2023-04-27T23:18:22.997Z,85.24
2023-04-27T23:20:57.302Z,85.42
2023-04-27T23:23:24.884Z,85.27
2023-04-27T23:25:52.399Z,85.76
2023-04-27T23:28:20.848Z,85.73
2023-04-27T23:30:55.145Z,85.86
2023-04-27T23:33:22.865Z,85.92
2023-04-27T23:35:50.486Z,86.09
2023-04-27T23:38:18.044Z,85.32
2023-04-27T23:40:45.613Z,86.23
2023-04-27T23:43:13.222Z,85.24
2023-04-27T23:45:40.960Z,85.67
2023-04-27T23:48:08.536Z,85.18
2023-04-27T23:50:36.104Z,85.58
2023-04-27T23:53:03.788Z,85.18
2023-04-27T23:55:34.602Z,85.89
2023-04-27T23:58:02.602Z,85.36
